Reedsville, WI (54230)

7:34 AM CDT on May 25, 2015 (GMT -0500)
south Wayside | | Change Station
CLOSE
Current Station
Personal Weather Station
Location: Reedsville, WI
Elevation: 863 ft
Nearby Weather Stations

Elev 863 ft 44.23 °N, 87.96 °W | Updated 13 minutes ago

Overcast
Overcast
57.3 °F
Feels Like 57.3 °F
N
5.0
Wind Variable Wind from SSE
Gusts 9.0 mph

Today
High -- | Low -- °F
--% Chance of Precip.
Yesterday
High -- | Low -- °F
Precip. -- in
5:16 AM 8:21 PM
Waxing Crescent, 48% visible
Pressure 29.80 in
Visibility 0.8 miles
Clouds Overcast 200 ft
Dew Point 57 °F
Humidity 99%
Rainfall 0.14 in
Snow Depth Not available.
UV 1 out of 12
Pollen .90 out of 12
Air Quality Not available.
Flu Activity Sporadic
SPECI KMTW 251229Z AUTO 14006KT 3/4SM BR OVC002 11/11 A2980 RMK AO2

More Conditions Fewer Conditions

Pressure 29.80 in
Visibility 0.8 miles
Clouds Overcast 200 ft
Dew Point 57 °F
Humidity 99%
Rainfall 0.14 in
Snow Depth Not available.
UV 1 out of 12
Pollen .90 out of 12
Air Quality Not available.
Flu Activity Sporadic
SPECI KMTW 251229Z AUTO 14006KT 3/4SM BR OVC002 11/11 A2980 RMK AO2

More Conditions Fewer Conditions

10-Day Weather Forecast

Almanac

Astronomy

May. 25, 2015 Rise Set
Actual Time
Civil Twilight
Nautical Twilight
Astronomical Twilight
Moon
Length of Visible Light
Length of Day
Tomorrow will be .
, % of the Moon is Illuminated

Today's Extremes

State Highs State Lows

Community

WunderPhotos

Upload Photos

1,823,986 photos uploaded!

WunderBlogs® & News

Nearby

Air Quality

  Air Quality AQ Index Pollutant
Not available.

Snow Depth

Station Depth Elevation

Earthquake Activity

City Distance Mag. Time & Date
Minimum magnitude displayed is 2.5.

Coastal Water Temperatures

Place Temperature

Stations

Nearby Weather Stations

Station Location Temp. Windchill Dew Point Humidity Wind Precip. Elev Updated Type